Saint Hilaire, Minnesota
Current Conditions -  °F | °C
As of 2:55 PM on Thursday 20 Nov 2014 (Local Time) from KTVF Reporting Station
Clear Clear  
Wind Chill: -18°   Ceiling: Unl
Heat Index: -12°   Visibility: 10mi
Dew Point: -17°   Wind: 7mph
Humidity: 67%   Direction: 280°W
Pressure: 30.11"   Gusts: NA
Location:  48.01°N, 96.21°W
Report Text: KTVF 202055Z AUTO 28006KT 10SM CLR M12/M17 A3011 RMK AO1 57003
Loading
Personal Weather Stations






























Interactive Weather Map New forecast layout! Learn more

10-Day Weather Forecast

Advertisements
Track Severe Weather on mobile